createdAt,value
2023-04-28T00:00:25.957Z,68.97
2023-04-28T00:05:49.802Z,69.13
2023-04-28T00:10:53.579Z,69.43
2023-04-28T00:15:56.929Z,69.63
2023-04-28T00:21:00.803Z,69.54
2023-04-28T00:26:03.708Z,68.46
2023-04-28T00:31:14.046Z,68.98
2023-04-28T00:36:17.197Z,68.62
2023-04-28T00:41:20.296Z,69.60
2023-04-28T00:46:25.458Z,70.19
2023-04-28T00:51:29.384Z,70.25
2023-04-28T00:56:32.479Z,70.20
2023-04-28T01:01:35.822Z,69.95
2023-04-28T01:06:39.300Z,69.99
2023-04-28T01:11:42.759Z,70.59
2023-04-28T01:16:45.852Z,70.24
2023-04-28T01:21:49.546Z,70.07
2023-04-28T01:26:52.545Z,69.87
2023-04-28T01:31:55.684Z,70.09
2023-04-28T01:36:58.859Z,70.01
2023-04-28T01:42:02.474Z,70.16
2023-04-28T01:47:05.579Z,70.43
2023-04-28T01:52:08.691Z,70.58
2023-04-28T01:57:11.789Z,70.82
2023-04-28T02:02:15.017Z,70.73
2023-04-28T02:07:18.104Z,71.00
2023-04-28T02:12:21.722Z,71.20
2023-04-28T02:17:24.958Z,71.05
2023-04-28T02:22:27.829Z,71.21
2023-04-28T02:27:30.829Z,70.98
2023-04-28T02:32:33.976Z,70.97
2023-04-28T02:37:37.160Z,71.21
2023-04-28T02:42:40.053Z,71.11
2023-04-28T02:47:43.207Z,71.21
2023-04-28T02:52:48.334Z,71.31
2023-04-28T02:57:52.125Z,71.18
2023-04-28T03:02:55.694Z,70.90
2023-04-28T03:07:59.672Z,71.05
2023-04-28T03:13:02.673Z,71.27
2023-04-28T03:18:05.830Z,71.87
2023-04-28T03:23:08.883Z,72.18
2023-04-28T03:28:11.989Z,72.43
2023-04-28T03:33:14.889Z,72.43
2023-04-28T03:38:17.996Z,72.71
2023-04-28T03:43:21.407Z,73.08
2023-04-28T03:48:24.372Z,72.74
2023-04-28T03:53:27.519Z,73.03
2023-04-28T03:58:30.942Z,72.71
2023-04-28T04:03:34.140Z,73.23
2023-04-28T04:08:38.062Z,75.02
2023-04-28T04:13:41.077Z,73.19
2023-04-28T04:18:44.075Z,66.24
2023-04-28T04:23:47.384Z,60.14
2023-04-28T04:28:50.387Z,54.95
2023-04-28T04:33:53.698Z,50.18
2023-04-28T04:38:56.695Z,48.24
2023-04-28T04:43:59.600Z,45.31
2023-04-28T04:49:02.601Z,42.01
2023-04-28T04:54:05.612Z,38.76
2023-04-28T04:59:08.605Z,35.67
2023-04-28T05:04:11.775Z,34.28
2023-04-28T05:09:15.019Z,32.66
2023-04-28T05:14:18.275Z,30.67
2023-04-28T05:19:22.158Z,30.52
2023-04-28T05:24:25.380Z,29.23
2023-04-28T05:29:28.676Z,29.41
2023-04-28T05:34:31.797Z,28.06
2023-04-28T05:39:35.116Z,28.58
2023-04-28T05:44:38.196Z,29.78
2023-04-28T05:49:41.303Z,30.15
2023-04-28T05:54:44.315Z,26.06
2023-04-28T05:59:47.718Z,26.42
2023-04-28T06:04:51.180Z,26.64
2023-04-28T06:09:54.361Z,25.21
2023-04-28T06:14:58.370Z,23.05
2023-04-28T06:20:01.595Z,22.55
2023-04-28T06:25:05.678Z,20.94
2023-04-28T06:30:09.523Z,22.03
2023-04-28T06:35:12.530Z,21.03
2023-04-28T06:40:16.151Z,19.41
2023-04-28T06:45:19.268Z,19.54
2023-04-28T06:50:23.291Z,20.31
2023-04-28T06:55:27.066Z,17.73
2023-04-28T07:00:30.268Z,18.00
2023-04-28T07:05:34.470Z,16.93
2023-04-28T07:10:37.656Z,16.42
2023-04-28T07:15:41.879Z,16.55
2023-04-28T07:20:45.093Z,16.54
2023-04-28T07:25:48.113Z,16.86
2023-04-28T07:30:51.103Z,15.63
2023-04-28T07:35:54.406Z,17.12
2023-04-28T07:40:58.023Z,15.37
2023-04-28T07:46:01.201Z,16.39
2023-04-28T07:51:04.101Z,15.78
2023-04-28T07:56:07.650Z,16.89
2023-04-28T08:01:12.296Z,16.79
2023-04-28T08:06:15.392Z,17.32
2023-04-28T08:11:18.391Z,16.94
2023-04-28T08:16:23.069Z,17.21
2023-04-28T08:21:27.676Z,19.20
2023-04-28T08:26:31.491Z,18.77
2023-04-28T08:31:34.839Z,19.17
2023-04-28T08:36:38.222Z,17.87
2023-04-28T08:41:41.628Z,19.07
2023-04-28T08:46:45.296Z,20.46
2023-04-28T08:51:56.133Z,22.51
2023-04-28T08:56:59.486Z,23.33
2023-04-28T09:02:03.009Z,21.55
2023-04-28T09:07:11.488Z,20.75
2023-04-28T09:12:14.604Z,20.01
2023-04-28T09:17:18.225Z,18.21
2023-04-28T09:22:28.100Z,18.08
2023-04-28T09:27:31.194Z,18.35
2023-04-28T09:32:34.367Z,18.81
2023-04-28T09:37:38.012Z,20.28
2023-04-28T09:42:42.074Z,21.32
2023-04-28T09:47:47.332Z,20.42
2023-04-28T09:52:57.840Z,20.38
2023-04-28T09:58:02.436Z,21.18
2023-04-28T10:03:06.128Z,22.73
2023-04-28T10:08:11.908Z,24.18
2023-04-28T10:13:19.525Z,24.88
2023-04-28T10:18:23.376Z,25.93
2023-04-28T10:23:26.552Z,25.60
2023-04-28T10:28:30.067Z,24.81
2023-04-28T10:33:33.274Z,24.37
2023-04-28T10:38:36.692Z,25.17
2023-04-28T10:43:40.265Z,25.84
2023-04-28T10:48:49.300Z,26.45
2023-04-28T10:53:52.665Z,25.93
2023-04-28T10:58:56.723Z,26.63
2023-04-28T11:04:03.426Z,27.33
2023-04-28T11:09:14.280Z,26.84
2023-04-28T11:14:17.572Z,27.63
2023-04-28T11:19:21.811Z,27.29
2023-04-28T11:24:32.590Z,27.85
2023-04-28T11:29:36.929Z,28.11
2023-04-28T11:34:40.239Z,28.46
2023-04-28T11:39:43.648Z,27.84
2023-04-28T11:44:50.744Z,27.23
2023-04-28T11:49:53.751Z,27.37
2023-04-28T11:54:58.392Z,26.96
2023-04-28T12:00:15.268Z,26.78
2023-04-28T12:05:18.883Z,27.20
2023-04-28T12:10:22.375Z,27.42
2023-04-28T12:15:40.096Z,28.59
2023-04-28T12:20:43.925Z,28.31
2023-04-28T12:25:48.541Z,28.73
2023-04-28T12:31:04.392Z,28.55
2023-04-28T12:36:08.804Z,28.37
2023-04-28T12:41:12.121Z,28.20
2023-04-28T12:46:16.060Z,28.53
2023-04-28T12:51:19.559Z,28.20
2023-04-28T12:56:24.104Z,28.47
2023-04-28T13:01:27.750Z,28.66
2023-04-28T13:06:31.233Z,29.40
2023-04-28T13:11:34.646Z,28.26
2023-04-28T13:16:38.077Z,29.09
2023-04-28T13:21:42.598Z,29.22
2023-04-28T13:26:46.023Z,29.02
2023-04-28T13:31:49.031Z,29.50
2023-04-28T13:36:54.089Z,29.95
2023-04-28T13:41:57.179Z,30.11
2023-04-28T13:47:00.600Z,30.32
2023-04-28T13:52:03.990Z,30.70
2023-04-28T13:57:07.109Z,30.09
2023-04-28T14:02:11.920Z,30.08
2023-04-28T14:07:15.579Z,29.56
2023-04-28T14:12:18.566Z,29.69
2023-04-28T14:17:21.937Z,29.86
2023-04-28T14:22:25.078Z,30.05
2023-04-28T14:27:29.627Z,29.92
2023-04-28T14:32:32.785Z,29.90
2023-04-28T14:37:36.091Z,29.90
2023-04-28T14:42:39.254Z,29.78
2023-04-28T14:47:42.697Z,29.87
2023-04-28T14:52:46.013Z,30.43
2023-04-28T14:57:49.278Z,30.55
2023-04-28T15:02:52.559Z,30.52
2023-04-28T15:07:55.802Z,30.38
2023-04-28T15:12:58.801Z,30.16
2023-04-28T15:18:02.357Z,30.10
2023-04-28T15:23:05.528Z,29.85
2023-04-28T15:28:09.164Z,30.02
2023-04-28T15:33:17.828Z,30.25
2023-04-28T15:38:20.881Z,30.26
2023-04-28T15:43:25.446Z,30.42
2023-04-28T15:48:28.727Z,30.23
2023-04-28T15:53:32.243Z,30.13
2023-04-28T15:58:35.458Z,30.20
2023-04-28T16:03:39.781Z,30.39
2023-04-28T16:08:43.411Z,30.31
2023-04-28T16:13:46.412Z,30.32
2023-04-28T16:18:49.932Z,30.58
2023-04-28T16:23:52.952Z,30.87
2023-04-28T16:28:56.960Z,30.91
2023-04-28T16:34:00.704Z,31.30
2023-04-28T16:39:04.121Z,31.62
2023-04-28T16:44:08.433Z,31.59
2023-04-28T16:49:13.274Z,31.38
2023-04-28T16:54:16.792Z,31.16
2023-04-28T16:59:20.202Z,32.34
2023-04-28T17:04:24.276Z,33.53
2023-04-28T17:09:28.361Z,34.19
2023-04-28T17:14:31.680Z,34.63
2023-04-28T17:19:34.792Z,35.24
2023-04-28T17:24:38.006Z,35.64
2023-04-28T17:29:43.031Z,36.34
2023-04-28T17:34:46.549Z,36.58
2023-04-28T17:39:50.031Z,36.88
2023-04-28T17:44:53.475Z,36.06
2023-04-28T17:49:57.002Z,36.35
2023-04-28T17:54:59.991Z,36.82
2023-04-28T18:00:06.173Z,37.00
2023-04-28T18:05:10.790Z,39.45
2023-04-28T18:10:14.449Z,42.08
2023-04-28T18:15:17.950Z,41.30
2023-04-28T18:20:21.265Z,40.83
2023-04-28T18:25:25.897Z,40.79
2023-04-28T18:30:38.732Z,42.10
2023-04-28T18:35:41.947Z,47.53
2023-04-28T18:40:45.143Z,51.75
2023-04-28T18:45:48.407Z,52.14
2023-04-28T18:50:52.282Z,53.66
2023-04-28T18:55:56.947Z,52.19
2023-04-28T19:01:00.619Z,50.52
2023-04-28T19:06:06.525Z,51.25
2023-04-28T19:11:11.554Z,49.87
2023-04-28T19:16:16.428Z,50.14
2023-04-28T19:21:20.303Z,51.26
2023-04-28T19:26:23.597Z,48.62
2023-04-28T19:31:26.922Z,50.30
2023-04-28T19:36:30.371Z,58.92
2023-04-28T19:41:35.623Z,58.34
2023-04-28T19:46:38.898Z,54.74
2023-04-28T19:51:44.400Z,54.63
2023-04-28T19:56:47.816Z,53.82
2023-04-28T20:01:51.082Z,54.57
2023-04-28T20:06:54.737Z,57.19
2023-04-28T20:11:59.177Z,57.89
2023-04-28T20:17:04.084Z,59.13
2023-04-28T20:22:08.843Z,61.69
2023-04-28T20:27:13.378Z,59.46
2023-04-28T20:32:16.943Z,57.35
2023-04-28T20:37:23.500Z,56.35
2023-04-28T20:42:28.365Z,59.41
2023-04-28T20:47:32.320Z,63.33
2023-04-28T20:52:35.801Z,66.73
2023-04-28T20:57:39.308Z,63.83
2023-04-28T21:02:42.589Z,68.95
2023-04-28T21:07:46.337Z,67.94
2023-04-28T21:12:49.861Z,70.30
2023-04-28T21:17:52.911Z,67.32
2023-04-28T21:22:56.937Z,67.00
2023-04-28T21:28:01.662Z,66.94
2023-04-28T21:33:05.605Z,66.45
2023-04-28T21:38:08.762Z,67.05
2023-04-28T21:43:12.379Z,66.72
2023-04-28T21:48:15.590Z,69.27
2023-04-28T21:53:18.605Z,67.96
2023-04-28T21:58:21.600Z,69.43
2023-04-28T22:03:24.823Z,68.77
2023-04-28T22:08:28.015Z,68.08
2023-04-28T22:13:31.548Z,68.23
2023-04-28T22:18:34.838Z,69.54
2023-04-28T22:23:37.845Z,70.21
2023-04-28T22:28:40.743Z,68.85
2023-04-28T22:33:43.748Z,67.66
2023-04-28T22:38:46.747Z,69.17
2023-04-28T22:43:49.650Z,71.58
2023-04-28T22:48:52.891Z,72.19
2023-04-28T22:53:55.756Z,71.80
2023-04-28T22:58:58.665Z,73.01
2023-04-28T23:04:02.128Z,71.76
2023-04-28T23:09:05.790Z,70.24
2023-04-28T23:14:08.896Z,70.30
2023-04-28T23:19:11.926Z,71.87
2023-04-28T23:24:14.902Z,72.55
2023-04-28T23:29:17.916Z,73.76
2023-04-28T23:34:21.626Z,73.54
2023-04-28T23:39:25.352Z,72.11
2023-04-28T23:44:28.350Z,73.60
2023-04-28T23:49:31.355Z,73.31
2023-04-28T23:54:34.353Z,73.46
2023-04-28T23:59:37.253Z,74.49
